Time;durP1;ratioP1;P1;durP2;ratioP2;P2;SDS_P1;SDS_P2;PMS_P1;PMS_P2;Temp;Humidity;BMP_temperature;BMP_pressure;BME280_temperature;BME280_humidity;BME280_pressure;Samples;Min_cycle;Max_cycle;Signal;HPM_P1;HPM_P2
2023/08/22 00:00:33;;;;;;;13.45;9.82;;;;;;;25.96;70.47;100858.50;4856346;29;20225;-71
2023/08/22 00:03:20;;;;;;;12.20;9.48;;;;;;;25.92;70.72;100860.09;4856868;29;20708;-70
2023/08/22 00:05:48;;;;;;;15.98;9.77;;;;;;;25.88;70.73;100858.88;4858193;29;20659;-70
2023/08/22 00:08:15;;;;;;;14.23;10.13;;;;;;;25.79;71.38;100858.44;4857448;29;20266;-68
2023/08/22 00:10:46;;;;;;;13.63;10.30;;;;;;;25.76;71.33;100865.19;4856572;29;20214;-68
2023/08/22 00:13:13;;;;;;;14.27;8.93;;;;;;;25.82;70.75;100857.97;4858488;29;20214;-69
2023/08/22 00:15:41;;;;;;;13.32;10.45;;;;;;;25.86;70.37;100859.13;4858434;29;20243;-70
2023/08/22 00:18:09;;;;;;;11.73;9.70;;;;;;;25.91;69.76;100870.13;4863438;29;20222;-70
2023/08/22 00:20:37;;;;;;;14.30;9.52;;;;;;;25.94;69.66;100874.25;4864655;29;20863;-69
2023/08/22 00:23:05;;;;;;;11.07;9.27;;;;;;;25.96;69.29;100858.50;4861347;29;20235;-70
2023/08/22 00:25:33;;;;;;;15.70;9.52;;;;;;;25.95;69.21;100852.25;4864354;29;20210;-69
2023/08/22 00:28:02;;;;;;;16.83;9.60;;;;;;;25.95;69.24;100851.47;4862545;29;20242;-69
2023/08/22 00:30:29;;;;;;;13.63;9.77;;;;;;;25.94;69.14;100852.53;4861634;29;20213;-71
2023/08/22 00:32:57;;;;;;;12.23;9.80;;;;;;;25.94;69.26;100838.94;4862302;29;20214;-70
2023/08/22 00:35:28;;;;;;;11.65;9.68;;;;;;;25.94;69.13;100849.81;4858237;29;20211;-70
2023/08/22 00:37:56;;;;;;;10.27;8.57;;;;;;;25.93;69.06;100840.00;4859194;29;20234;-69
2023/08/22 00:40:24;;;;;;;10.20;8.60;;;;;;;25.89;69.14;100836.94;4861544;29;20214;-68
2023/08/22 00:42:51;;;;;;;13.15;10.32;;;;;;;25.88;69.00;100834.44;4860382;29;20313;-72
2023/08/22 00:45:20;;;;;;;10.13;8.52;;;;;;;25.86;68.58;100837.38;4861660;29;20707;-69
2023/08/22 00:47:48;;;;;;;12.57;9.07;;;;;;;25.84;68.78;100842.25;4860993;29;20268;-70
2023/08/22 00:50:16;;;;;;;12.30;8.88;;;;;;;25.82;68.57;100842.50;4858729;29;20207;-68
2023/08/22 00:52:44;;;;;;;11.43;9.15;;;;;;;25.81;68.21;100842.72;4860391;29;20226;-68
2023/08/22 00:55:13;;;;;;;12.25;8.77;;;;;;;25.78;68.46;100835.88;4858207;29;20214;-71
2023/08/22 00:57:41;;;;;;;15.57;9.20;;;;;;;25.78;68.37;100835.88;4859515;29;20644;-70
2023/08/22 01:00:10;;;;;;;13.65;8.48;;;;;;;25.78;68.23;100826.91;4862411;29;20278;-70
2023/08/22 01:02:40;;;;;;;11.98;8.70;;;;;;;25.78;68.55;100824.19;4861524;29;20278;-71
2023/08/22 01:05:09;;;;;;;11.77;8.80;;;;;;;25.76;68.22;100826.34;4861783;29;20214;-70
2023/08/22 01:07:45;;;;;;;13.80;8.75;;;;;;;25.76;68.14;100831.78;4861146;29;20202;-71
2023/08/22 01:10:19;;;;;;;13.05;9.60;;;;;;;25.75;68.22;100833.66;4861570;29;20206;-70
2023/08/22 01:12:52;;;;;;;14.30;9.18;;;;;;;25.68;68.12;100832.16;4860522;29;21790;-72
2023/08/22 01:15:24;;;;;;;12.90;8.85;;;;;;;25.50;69.07;100830.34;4861995;29;20297;-70
2023/08/22 01:17:56;;;;;;;15.18;9.50;;;;;;;25.36;69.74;100828.94;4860312;29;20230;-69
2023/08/22 01:20:26;;;;;;;13.00;8.98;;;;;;;25.24;69.90;100828.13;4859975;29;21041;-68
2023/08/22 01:22:56;;;;;;;12.38;8.90;;;;;;;25.19;70.36;100830.69;4860115;29;20218;-69
2023/08/22 01:25:24;;;;;;;11.70;8.93;;;;;;;25.18;70.64;100823.63;4860648;29;20276;-71
2023/08/22 01:28:08;;;;;;;15.35;8.75;;;;;;;25.22;70.81;100824.81;4857869;29;20218;-69
2023/08/22 01:30:47;;;;;;;13.70;8.60;;;;;;;25.24;70.53;100828.13;4860412;29;20206;-70
2023/08/22 01:33:21;;;;;;;13.13;8.52;;;;;;;25.22;70.46;100827.53;4856778;29;20199;-70
2023/08/22 01:35:51;;;;;;;13.63;9.27;;;;;;;25.24;70.36;100828.13;4860308;29;20226;-70
2023/08/22 01:38:22;;;;;;;11.27;8.60;;;;;;;25.21;70.19;100826.69;4859557;29;20246;-72
2023/08/22 01:40:51;;;;;;;11.25;9.32;;;;;;;25.16;70.37;100832.00;4859297;29;20307;-69
2023/08/22 01:43:19;;;;;;;16.65;9.32;;;;;;;25.11;70.04;100827.28;4855616;29;20279;-70
2023/08/22 01:45:47;;;;;;;12.55;9.18;;;;;;;25.06;70.28;100820.91;4857599;29;20285;-72
2023/08/22 01:48:15;;;;;;;10.05;8.77;;;;;;;25.00;71.06;100817.25;4855401;29;20933;-70
2023/08/22 01:50:43;;;;;;;13.30;8.40;;;;;;;24.93;71.32;100805.69;4857886;29;20314;-69
2023/08/22 01:53:11;;;;;;;12.02;9.02;;;;;;;24.86;71.58;100806.81;4858030;29;20218;-70
2023/08/22 01:55:40;;;;;;;13.55;8.88;;;;;;;24.86;72.04;100804.94;4859180;29;20214;-69
2023/08/22 01:58:10;;;;;;;10.85;8.80;;;;;;;24.80;72.31;100808.59;4861068;29;20242;-68
2023/08/22 02:00:39;;;;;;;13.98;9.90;;;;;;;24.73;72.76;100797.00;4855706;29;20206;-68
2023/08/22 02:03:07;;;;;;;12.38;9.05;;;;;;;24.66;73.38;100793.56;4858305;29;20211;-69
2023/08/22 02:05:34;;;;;;;10.40;8.93;;;;;;;24.71;73.24;100796.44;4856030;29;20218;-68
2023/08/22 02:08:03;;;;;;;10.35;8.85;;;;;;;24.84;72.62;100806.22;4856308;29;20309;-68
2023/08/22 02:10:32;;;;;;;13.65;9.38;;;;;;;24.95;72.06;100798.13;4855544;29;20217;-68
2023/08/22 02:13:01;;;;;;;9.88;8.82;;;;;;;25.00;72.09;100806.38;4857154;29;22590;-69
2023/08/22 02:15:29;;;;;;;11.55;9.02;;;;;;;25.02;72.27;100807.00;4858557;29;20217;-68
2023/08/22 02:17:57;;;;;;;14.32;9.18;;;;;;;25.04;71.70;100807.59;4856610;29;20437;-69
2023/08/22 02:20:25;;;;;;;15.57;9.40;;;;;;;25.09;71.32;100813.13;4856951;29;20322;-69
2023/08/22 02:22:53;;;;;;;13.43;8.63;;;;;;;25.08;71.61;100808.75;4858096;29;20286;-70
2023/08/22 02:25:21;;;;;;;13.20;9.13;;;;;;;25.05;71.87;100809.25;4857599;29;20241;-70
2023/08/22 02:27:49;;;;;;;12.60;9.00;;;;;;;25.02;72.00;100809.69;4855955;29;20290;-70
2023/08/22 02:30:18;;;;;;;12.45;9.40;;;;;;;24.98;71.95;100796.84;4858100;29;20252;-70
2023/08/22 02:32:45;;;;;;;15.57;10.05;;;;;;;24.93;72.48;100802.97;4854509;29;20310;-69
2023/08/22 02:35:13;;;;;;;10.20;8.90;;;;;;;24.88;72.67;100805.53;4856779;29;20206;-69
2023/08/22 02:37:41;;;;;;;18.20;9.60;;;;;;;24.82;72.70;100798.31;4856669;29;20211;-69
2023/08/22 02:40:10;;;;;;;14.07;10.23;;;;;;;24.77;72.92;100795.50;4856045;29;20215;-70
2023/08/22 02:42:39;;;;;;;15.43;10.00;;;;;;;24.71;73.34;100797.25;4856060;29;20233;-68
2023/08/22 02:45:07;;;;;;;12.77;9.88;;;;;;;24.60;74.21;100802.66;4856155;29;20246;-70
2023/08/22 02:47:36;;;;;;;13.73;8.90;;;;;;;24.49;74.82;100798.84;4856800;29;20908;-71
2023/08/22 02:50:06;;;;;;;14.20;9.52;;;;;;;24.47;74.80;100797.41;4859405;29;20233;-68
2023/08/22 02:52:34;;;;;;;16.25;9.93;;;;;;;24.50;74.34;100794.25;4856688;29;20317;-74
2023/08/22 02:55:01;;;;;;;14.40;10.32;;;;;;;24.54;74.29;100795.44;4857435;29;20221;-70
2023/08/22 02:57:29;;;;;;;14.77;9.90;;;;;;;24.58;73.78;100799.34;4864592;29;20873;-71
2023/08/22 02:59:57;;;;;;;13.07;9.43;;;;;;;24.63;73.42;100807.59;4856440;29;22099;-68
2023/08/22 03:02:25;;;;;;;13.95;9.75;;;;;;;24.69;73.05;100807.50;4857382;29;20304;-69
2023/08/22 03:04:54;;;;;;;13.13;9.77;;;;;;;24.75;73.06;100808.44;4855645;29;20905;-69
2023/08/22 03:07:21;;;;;;;11.32;8.88;;;;;;;24.74;73.19;100817.63;4854925;29;20689;-70
2023/08/22 03:09:49;;;;;;;14.00;9.38;;;;;;;24.76;72.88;100820.94;4858576;29;20237;-70
2023/08/22 03:12:17;;;;;;;11.48;9.00;;;;;;;24.72;73.07;100825.16;4858149;29;20217;-69
2023/08/22 03:14:45;;;;;;;13.32;10.02;;;;;;;24.65;73.54;100817.16;4858743;29;20214;-69
2023/08/22 03:17:12;;;;;;;11.90;9.10;;;;;;;24.55;74.15;100822.31;4858228;29;20219;-71
2023/08/22 03:19:40;;;;;;;13.73;10.38;;;;;;;24.53;73.95;100826.31;4856641;29;20945;-69
2023/08/22 03:22:09;;;;;;;12.10;9.05;;;;;;;24.55;74.16;100824.19;4856481;29;20315;-68
2023/08/22 03:24:37;;;;;;;10.98;8.75;;;;;;;24.57;74.04;100830.22;4859191;29;20206;-69
2023/08/22 03:27:05;;;;;;;14.55;9.35;;;;;;;24.61;73.69;100820.56;4859072;29;20305;-68
2023/08/22 03:29:33;;;;;;;11.55;9.25;;;;;;;24.56;73.84;100817.72;4857110;29;20239;-68
2023/08/22 03:32:00;;;;;;;13.70;10.35;;;;;;;24.50;74.39;100818.66;4853968;29;20818;-69
2023/08/22 03:34:28;;;;;;;12.20;9.13;;;;;;;24.38;74.76;100816.72;4855806;29;20465;-71
2023/08/22 03:36:56;;;;;;;14.95;9.10;;;;;;;24.40;74.40;100815.66;4853790;29;20301;-70
2023/08/22 03:39:25;;;;;;;12.30;9.48;;;;;;;24.42;74.43;100810.84;4857170;29;20214;-70
2023/08/22 03:41:52;;;;;;;15.98;9.10;;;;;;;24.45;74.27;100810.41;4857748;29;20235;-70
2023/08/22 03:44:20;;;;;;;13.02;8.65;;;;;;;24.48;73.95;100818.03;4857941;29;20215;-69
2023/08/22 03:46:48;;;;;;;10.15;9.13;;;;;;;24.44;74.60;100819.56;4854806;29;20235;-69
2023/08/22 03:49:17;;;;;;;10.18;9.10;;;;;;;24.29;75.74;100812.66;4856907;29;20213;-70
2023/08/22 03:51:45;;;;;;;11.30;9.30;;;;;;;24.10;76.71;100812.94;4860693;29;20217;-69
2023/08/22 03:54:12;;;;;;;12.00;9.07;;;;;;;24.02;77.21;100816.75;4866897;29;20864;-68
2023/08/22 03:56:41;;;;;;;15.48;9.73;;;;;;;24.06;76.77;100820.69;4860901;29;20220;-68
2023/08/22 03:59:09;;;;;;;13.23;9.05;;;;;;;24.15;76.45;100816.59;4856959;29;20211;-69
2023/08/22 04:01:37;;;;;;;13.13;8.95;;;;;;;24.15;76.30;100819.31;4862690;29;20225;-70
2023/08/22 04:04:05;;;;;;;11.10;9.00;;;;;;;24.20;76.02;100816.72;4861198;29;20218;-69
2023/08/22 04:06:32;;;;;;;13.68;9.57;;;;;;;24.20;76.09;100829.44;4865415;29;20217;-68
2023/08/22 04:09:00;;;;;;;13.05;9.38;;;;;;;24.19;75.52;100820.50;4861980;29;20250;-68
2023/08/22 04:11:28;;;;;;;14.38;9.70;;;;;;;24.21;75.61;100823.00;4866168;29;20317;-68
2023/08/22 04:13:57;;;;;;;14.75;9.80;;;;;;;24.24;75.18;100819.84;4860638;29;20203;-69
2023/08/22 04:16:24;;;;;;;15.07;10.05;;;;;;;24.22;75.09;100822.78;4860986;29;20591;-69
2023/08/22 04:18:52;;;;;;;15.35;9.43;;;;;;;24.22;75.09;100824.66;4863040;29;20680;-69
2023/08/22 04:21:20;;;;;;;14.48;10.10;;;;;;;24.09;76.20;100817.53;4862400;29;20699;-71
2023/08/22 04:23:48;;;;;;;14.40;10.07;;;;;;;23.97;76.79;100822.03;4864268;29;20207;-69
2023/08/22 04:26:16;;;;;;;15.95;9.85;;;;;;;23.93;76.68;100818.13;4859961;29;20272;-70
2023/08/22 04:28:43;;;;;;;13.95;9.82;;;;;;;23.91;76.90;100822.97;4861160;29;20210;-68
2023/08/22 04:31:12;;;;;;;13.05;9.55;;;;;;;24.02;76.11;100827.59;4859244;29;20233;-70
2023/08/22 04:33:40;;;;;;;15.88;9.88;;;;;;;24.10;75.71;100827.28;4862478;29;20218;-70
2023/08/22 04:36:08;;;;;;;14.68;9.88;;;;;;;24.15;75.18;100830.16;4861896;29;20633;-69
2023/08/22 04:38:36;;;;;;;15.88;10.02;;;;;;;24.22;75.16;100836.31;4857597;29;20496;-70
2023/08/22 04:41:04;;;;;;;15.15;10.57;;;;;;;24.21;75.16;100839.25;4860342;29;20326;-69
2023/08/22 04:43:31;;;;;;;15.55;10.80;;;;;;;24.24;75.02;100839.66;4860824;29;20309;-69
2023/08/22 04:46:01;;;;;;;12.68;10.23;;;;;;;24.26;75.35;100834.84;4865370;29;20211;-68
2023/08/22 04:48:31;;;;;;;13.63;9.75;;;;;;;24.23;76.15;100832.56;4857197;29;20215;-69
2023/08/22 04:50:58;;;;;;;16.40;10.88;;;;;;;24.15;76.73;100832.03;4861476;29;20245;-69
2023/08/22 04:53:28;;;;;;;14.20;9.88;;;;;;;24.12;76.29;100841.44;4857254;29;20238;-69
2023/08/22 04:55:56;;;;;;;13.82;10.18;;;;;;;24.19;75.87;100836.75;4859192;29;20297;-71
2023/08/22 04:58:24;;;;;;;16.60;11.50;;;;;;;24.28;75.21;100842.69;4856267;29;20298;-69
2023/08/22 05:00:52;;;;;;;15.57;10.27;;;;;;;24.34;74.72;100839.09;4857560;29;20333;-70
2023/08/22 05:03:21;;;;;;;14.75;10.25;;;;;;;24.34;74.91;100836.38;4858004;29;20234;-73
2023/08/22 05:05:50;;;;;;;18.30;10.52;;;;;;;24.35;74.55;100840.75;4863884;29;20277;-72
2023/08/22 05:08:18;;;;;;;11.55;9.82;;;;;;;24.37;74.48;100847.56;4865923;29;20221;-71
2023/08/22 05:10:46;;;;;;;11.73;9.77;;;;;;;24.43;74.40;100836.91;4859172;29;20765;-69
2023/08/22 05:13:14;;;;;;;12.88;10.43;;;;;;;24.43;74.48;100845.03;4861558;29;20325;-65
2023/08/22 05:15:43;;;;;;;16.55;10.50;;;;;;;24.38;74.89;100851.13;4858616;29;20565;-66
2023/08/22 05:18:10;;;;;;;15.55;10.57;;;;;;;24.35;75.36;100851.59;4859502;29;20338;-65
2023/08/22 05:20:40;;;;;;;12.80;10.48;;;;;;;24.36;75.65;100847.84;4860865;29;20214;-66
2023/08/22 05:23:09;;;;;;;17.48;11.45;;;;;;;24.37;75.38;100847.56;4861585;29;20211;-65
2023/08/22 05:25:36;;;;;;;17.50;10.85;;;;;;;24.41;75.61;100855.25;4861982;29;20210;-64
2023/08/22 05:28:04;;;;;;;13.55;11.10;;;;;;;24.46;75.61;100852.69;4860307;29;20207;-63
2023/08/22 05:30:32;;;;;;;15.98;10.88;;;;;;;24.50;75.38;100859.31;4862500;29;20354;-64
2023/08/22 05:33:00;;;;;;;16.15;10.18;;;;;;;24.52;75.66;100857.19;4860847;29;20241;-64
2023/08/22 05:35:28;;;;;;;13.63;10.88;;;;;;;24.54;75.26;100865.94;4858062;29;20211;-66
2023/08/22 05:37:55;;;;;;;16.33;11.25;;;;;;;24.58;75.04;100870.66;4862755;29;20235;-64
2023/08/22 05:40:26;;;;;;;16.67;10.27;;;;;;;24.62;74.69;100869.16;4862099;29;20695;-62
2023/08/22 05:42:53;;;;;;;13.23;9.68;;;;;;;24.67;74.77;100868.44;4863965;29;20244;-65
2023/08/22 05:45:21;;;;;;;13.77;10.55;;;;;;;24.72;75.02;100871.28;4861605;29;20210;-65
2023/08/22 05:47:50;;;;;;;18.08;11.35;;;;;;;24.78;74.89;100867.66;4858925;29;20729;-65
2023/08/22 05:50:17;;;;;;;13.65;10.68;;;;;;;24.84;74.41;100874.03;4862504;29;20587;-64
2023/08/22 05:52:45;;;;;;;14.40;10.75;;;;;;;24.86;74.86;100869.22;4860471;29;20321;-66
2023/08/22 05:55:13;;;;;;;20.50;11.02;;;;;;;24.84;74.69;100869.44;4861751;29;20236;-67
2023/08/22 05:57:42;;;;;;;18.08;11.57;;;;;;;24.87;73.73;100871.69;4861661;29;20244;-68
2023/08/22 06:00:14;;;;;;;17.70;10.15;;;;;;;24.89;73.85;100866.84;4862055;29;20217;-65
2023/08/22 06:02:41;;;;;;;16.02;11.13;;;;;;;24.89;73.98;100861.41;4861570;29;20246;-64
2023/08/22 06:05:09;;;;;;;15.65;10.30;;;;;;;24.85;75.09;100867.56;4859771;29;20214;-64
2023/08/22 06:07:37;;;;;;;11.07;9.23;;;;;;;24.79;75.57;100872.03;4859318;29;20889;-65
2023/08/22 06:10:06;;;;;;;14.57;10.80;;;;;;;24.78;74.96;100873.09;4859926;29;20217;-66
2023/08/22 06:12:33;;;;;;;19.75;10.88;;;;;;;24.82;74.84;100868.00;4860475;29;20644;-64
2023/08/22 06:15:03;;;;;;;15.13;9.85;;;;;;;24.86;73.88;100875.47;4859433;29;20222;-64
2023/08/22 06:17:30;;;;;;;13.55;9.98;;;;;;;24.91;73.65;100875.59;4860957;29;20301;-65
2023/08/22 06:19:58;;;;;;;11.77;10.18;;;;;;;24.96;74.05;100873.03;4860604;29;20215;-64
2023/08/22 06:22:26;;;;;;;15.88;11.00;;;;;;;24.98;74.59;100872.81;4859281;29;20214;-66
2023/08/22 06:24:54;;;;;;;15.00;10.20;;;;;;;25.00;74.16;100876.09;4859224;29;20932;-67
2023/08/22 06:27:21;;;;;;;13.68;10.43;;;;;;;25.01;74.33;100865.03;4859302;29;20214;-65
2023/08/22 06:29:49;;;;;;;14.65;9.77;;;;;;;25.05;73.95;100874.34;4864833;29;20267;-66
2023/08/22 06:32:21;;;;;;;13.43;10.25;;;;;;;25.08;74.38;100867.63;4860073;29;20238;-66
2023/08/22 06:34:49;;;;;;;12.88;10.18;;;;;;;25.10;74.51;100871.75;4857506;29;20223;-64
2023/08/22 06:37:17;;;;;;;13.63;9.77;;;;;;;25.11;74.04;100876.13;4861301;29;20270;-62
2023/08/22 06:39:47;;;;;;;15.68;9.48;;;;;;;25.18;73.16;100875.19;4858273;29;20223;-66
2023/08/22 06:42:15;;;;;;;17.38;9.57;;;;;;;25.20;72.62;100863.03;4856485;29;20893;-62
2023/08/22 06:44:43;;;;;;;19.10;10.15;;;;;;;25.25;73.12;100859.59;4858146;29;20249;-64
2023/08/22 06:47:13;;;;;;;12.63;9.25;;;;;;;25.24;72.68;100868.84;4857406;29;20218;-63
2023/08/22 06:49:49;;;;;;;15.82;9.52;;;;;;;25.27;72.73;100865.63;4861071;29;20210;-63
2023/08/22 06:52:18;;;;;;;13.23;9.23;;;;;;;25.30;72.74;100860.56;4861481;29;20228;-64
2023/08/22 06:54:46;;;;;;;15.05;9.68;;;;;;;25.34;73.62;100866.34;4858315;29;20285;-66
2023/08/22 06:57:13;;;;;;;14.98;10.38;;;;;;;25.39;72.77;100858.34;4855371;29;20862;-66
2023/08/22 06:59:42;;;;;;;14.40;9.38;;;;;;;25.46;72.21;100859.03;4856122;29;20215;-67
2023/08/22 07:02:14;;;;;;;14.02;8.32;;;;;;;25.38;72.58;100868.38;4857032;29;21154;-66
2023/08/22 07:04:43;;;;;;;14.20;9.70;;;;;;;25.38;72.77;100871.06;4856078;29;20207;-62
2023/08/22 07:07:11;;;;;;;14.18;9.93;;;;;;;25.44;72.35;100869.28;4854969;29;20245;-67
2023/08/22 07:09:40;;;;;;;13.95;9.70;;;;;;;25.47;72.77;100866.94;4856694;29;20222;-62
2023/08/22 07:12:08;;;;;;;13.07;9.27;;;;;;;25.54;72.10;100871.41;4859434;29;20235;-67
2023/08/22 07:14:41;;;;;;;13.00;9.05;;;;;;;25.60;72.17;100876.75;4859193;29;20889;-65
2023/08/22 07:17:10;;;;;;;11.45;8.85;;;;;;;25.64;71.58;100877.94;4855028;29;20218;-64
2023/08/22 07:19:37;;;;;;;14.88;9.20;;;;;;;25.70;71.55;100873.44;4855909;29;20218;-64
2023/08/22 07:22:10;;;;;;;16.92;9.75;;;;;;;25.74;71.81;100872.75;4854951;29;20722;-64
2023/08/22 07:24:38;;;;;;;15.07;9.15;;;;;;;25.78;71.82;100873.06;4857185;29;20215;-65
2023/08/22 07:27:06;;;;;;;12.27;9.38;;;;;;;25.85;72.43;100873.81;4860003;29;20214;-64
2023/08/22 07:29:34;;;;;;;15.20;9.00;;;;;;;25.87;72.55;100871.66;4860296;29;20267;-65
2023/08/22 07:32:01;;;;;;;10.70;8.80;;;;;;;25.94;71.21;100882.41;4859324;29;20325;-64
2023/08/22 07:34:32;;;;;;;12.30;8.82;;;;;;;26.00;71.78;100870.56;4856939;29;20201;-63
2023/08/22 07:37:02;;;;;;;19.45;9.45;;;;;;;26.03;72.03;100870.94;4858675;29;20209;-64
2023/08/22 07:39:31;;;;;;;14.85;8.73;;;;;;;26.06;71.80;100865.00;4861129;29;20206;-64
2023/08/22 07:41:59;;;;;;;16.13;9.43;;;;;;;26.11;71.42;100869.72;4858321;29;20631;-64
2023/08/22 07:44:28;;;;;;;13.68;9.43;;;;;;;26.19;71.66;100869.34;4860742;29;20828;-64
2023/08/22 07:46:56;;;;;;;12.05;8.38;;;;;;;26.24;71.48;100866.72;4856989;29;20210;-64
2023/08/22 07:49:25;;;;;;;12.45;9.10;;;;;;;26.31;71.29;100872.03;4857041;29;20790;-65
2023/08/22 07:51:53;;;;;;;11.85;8.48;;;;;;;26.38;71.81;100862.69;4855621;29;20240;-64
2023/08/22 07:54:21;;;;;;;11.88;8.05;;;;;;;26.48;71.96;100868.28;4858173;29;20242;-64
2023/08/22 07:56:50;;;;;;;14.80;7.88;;;;;;;26.57;71.24;100872.28;4858495;29;20275;-64
2023/08/22 07:59:31;;;;;;;13.43;8.68;;;;;;;26.69;69.88;100874.94;4859126;29;20370;-67
2023/08/22 08:01:59;;;;;;;12.20;7.82;;;;;;;26.84;69.55;100871.66;4857448;29;20305;-64
2023/08/22 08:04:27;;;;;;;14.48;7.47;;;;;;;26.97;67.87;100874.13;4858424;29;20218;-64
2023/08/22 08:06:55;;;;;;;11.95;7.00;;;;;;;27.07;67.37;100877.00;4857529;29;20650;-64
2023/08/22 08:09:25;;;;;;;12.68;7.60;;;;;;;27.18;66.29;100884.25;4857792;29;20348;-65
2023/08/22 08:12:04;;;;;;;17.52;7.47;;;;;;;27.28;64.95;100875.44;4858551;29;20226;-66
2023/08/22 08:14:31;;;;;;;8.27;6.80;;;;;;;27.38;65.64;100877.47;4857700;29;20315;-64
2023/08/22 08:17:00;;;;;;;15.50;7.25;;;;;;;27.48;66.43;100877.63;4859813;29;20563;-63
2023/08/22 08:19:28;;;;;;;10.32;6.70;;;;;;;27.59;65.49;100874.84;4854990;29;20214;-65
2023/08/22 08:21:56;;;;;;;10.93;7.20;;;;;;;27.70;63.99;100873.94;4857024;29;20284;-65
2023/08/22 08:24:24;;;;;;;10.20;6.07;;;;;;;27.79;63.36;100871.59;4857595;29;20278;-64
2023/08/22 08:26:52;;;;;;;16.58;6.60;;;;;;;27.91;62.31;100874.19;4855169;29;21270;-64
2023/08/22 08:29:21;;;;;;;10.93;6.63;;;;;;;28.02;63.49;100871.34;4860653;29;20684;-65
2023/08/22 08:31:49;;;;;;;9.70;6.75;;;;;;;28.14;62.96;100870.41;4859662;29;20215;-64
2023/08/22 08:34:17;;;;;;;11.32;6.10;;;;;;;28.28;61.91;100877.13;4858998;29;20214;-66
2023/08/22 08:36:44;;;;;;;13.10;7.05;;;;;;;28.41;62.54;100874.00;4859795;29;20358;-65
2023/08/22 08:39:12;;;;;;;9.73;6.47;;;;;;;28.49;61.55;100870.84;4857230;29;20274;-63
2023/08/22 08:41:48;;;;;;;12.48;6.43;;;;;;;28.62;61.44;100873.13;4860278;29;20348;-69
2023/08/22 08:44:16;;;;;;;7.30;5.53;;;;;;;28.71;59.34;100877.06;4862670;29;20236;-66
2023/08/22 08:46:48;;;;;;;7.88;4.97;;;;;;;28.77;59.05;100870.59;4859049;29;21052;-69
2023/08/22 08:49:17;;;;;;;15.05;6.00;;;;;;;28.88;58.89;100865.22;4858935;29;20221;-65
2023/08/22 08:51:46;;;;;;;13.98;6.10;;;;;;;28.97;57.71;100875.41;4858392;29;20369;-67
2023/08/22 08:54:14;;;;;;;8.32;5.30;;;;;;;29.14;56.62;100867.91;4856539;29;20941;-71
2023/08/22 08:56:42;;;;;;;10.45;5.45;;;;;;;29.24;56.41;100869.91;4858285;29;20538;-67
2023/08/22 08:59:09;;;;;;;12.57;6.00;;;;;;;29.31;56.94;100864.19;4857609;29;20988;-67
2023/08/22 09:01:39;;;;;;;11.48;5.38;;;;;;;29.42;56.47;100865.94;4861024;29;20299;-66
2023/08/22 09:04:08;;;;;;;9.93;5.20;;;;;;;29.50;56.02;100874.47;4863065;29;20747;-63
2023/08/22 09:06:37;;;;;;;10.18;4.88;;;;;;;29.61;54.64;100869.06;4859781;29;20211;-66
2023/08/22 09:09:08;;;;;;;9.73;4.93;;;;;;;29.71;54.52;100863.69;4864689;29;20938;-65
2023/08/22 09:11:40;;;;;;;10.02;5.43;;;;;;;29.80;54.32;100867.56;4858367;29;20267;-67
2023/08/22 09:14:18;;;;;;;9.77;4.82;;;;;;;29.88;52.90;100867.88;4862058;29;20317;-65
2023/08/22 09:16:46;;;;;;;9.13;4.80;;;;;;;29.99;52.94;100866.03;4860644;29;20218;-66
2023/08/22 09:19:15;;;;;;;7.40;4.72;;;;;;;30.11;51.75;100863.06;4860612;29;20272;-64
2023/08/22 09:21:57;;;;;;;7.60;4.20;;;;;;;30.20;51.16;100867.75;4860369;29;20207;-67
2023/08/22 09:24:26;;;;;;;5.95;4.38;;;;;;;30.25;51.06;100870.50;4857913;29;20226;-71
2023/08/22 09:26:54;;;;;;;7.50;4.30;;;;;;;30.32;50.64;100869.44;4860883;29;20255;-65
2023/08/22 09:29:26;;;;;;;9.65;4.90;;;;;;;30.40;51.24;100866.16;4859262;29;20294;-66
2023/08/22 09:31:57;;;;;;;6.07;3.88;;;;;;;30.50;49.02;100863.44;4861265;29;20910;-67
2023/08/22 09:34:26;;;;;;;8.85;4.15;;;;;;;30.59;48.27;100861.88;4860552;29;20246;-64
2023/08/22 09:36:54;;;;;;;8.02;3.78;;;;;;;30.64;47.11;100857.22;4859996;29;21329;-63
2023/08/22 09:39:23;;;;;;;7.60;3.50;;;;;;;30.72;46.73;100852.28;4860421;29;20592;-64
2023/08/22 09:41:53;;;;;;;7.43;3.58;;;;;;;30.78;46.53;100862.97;4859508;29;20333;-62
2023/08/22 09:44:23;;;;;;;6.05;3.35;;;;;;;30.72;47.25;100852.28;4861095;29;20223;-67
2023/08/22 09:46:52;;;;;;;4.85;2.53;;;;;;;30.72;44.48;100858.56;4858276;29;20634;-67
2023/08/22 09:49:20;;;;;;;10.02;2.90;;;;;;;30.75;43.27;100855.31;4857797;29;20290;-65
2023/08/22 09:51:52;;;;;;;5.50;2.60;;;;;;;30.73;41.69;100854.75;4861814;29;20751;-64
2023/08/22 09:54:20;;;;;;;5.78;2.30;;;;;;;30.77;39.89;100864.06;4860867;29;20743;-65
2023/08/22 09:56:48;;;;;;;7.15;2.30;;;;;;;30.83;40.05;100864.88;4859072;29;20326;-66
2023/08/22 09:59:18;;;;;;;3.97;1.85;;;;;;;30.96;39.45;100862.41;4860888;29;20717;-66
2023/08/22 10:01:48;;;;;;;4.13;2.25;;;;;;;31.10;38.99;100870.13;4859488;29;21256;-66
2023/08/22 10:04:18;;;;;;;4.72;2.03;;;;;;;31.26;37.77;100866.28;4860996;29;20210;-68
2023/08/22 10:06:48;;;;;;;3.97;2.20;;;;;;;31.42;37.67;100876.13;4859260;29;20230;-66
2023/08/22 10:09:28;;;;;;;4.80;2.10;;;;;;;31.52;37.39;100867.88;5113293;27;20560;-63
2023/08/22 10:11:59;;;;;;;3.22;1.85;;;;;;;31.42;37.58;100867.91;5091427;28;20253;-64
2023/08/22 10:14:29;;;;;;;5.28;2.50;;;;;;;31.23;37.79;100864.06;5089628;28;20205;-67
2023/08/22 10:16:58;;;;;;;4.45;2.30;;;;;;;31.01;37.56;100858.88;5090297;28;20297;-69
2023/08/22 10:19:28;;;;;;;3.75;2.33;;;;;;;30.84;36.51;100858.31;5089604;28;20260;-64
2023/08/22 10:22:06;;;;;;;5.82;2.00;;;;;;;30.76;37.65;100858.88;5089879;28;20210;-65
2023/08/22 10:24:36;;;;;;;5.90;2.20;;;;;;;30.66;37.92;100859.66;5089846;28;20873;-65
2023/08/22 10:27:05;;;;;;;5.82;2.60;;;;;;;30.70;37.51;100854.50;5087654;28;20672;-66
2023/08/22 10:29:37;;;;;;;3.25;1.67;;;;;;;30.93;37.83;100853.94;5090382;28;20203;-64
2023/08/22 10:32:20;;;;;;;6.03;2.25;;;;;;;31.15;38.05;100851.75;5089707;28;20202;-63
2023/08/22 10:35:27;;;;;;;5.90;2.22;;;;;;;31.13;39.19;100845.75;5090436;28;20602;-65
2023/08/22 10:37:56;;;;;;;7.00;3.38;;;;;;;30.96;40.72;100846.00;5088140;28;20666;-66
2023/08/22 10:40:30;;;;;;;5.78;3.05;;;;;;;30.98;40.37;100846.53;5089032;28;20213;-65
2023/08/22 10:43:09;;;;;;;5.85;3.13;;;;;;;31.01;42.49;100840.53;5085682;28;20254;-62
2023/08/22 10:45:50;;;;;;;5.03;3.42;;;;;;;31.07;43.22;100837.78;5085637;28;20194;-63
2023/08/22 10:48:19;;;;;;;7.28;3.30;;;;;;;31.02;43.66;100847.66;5089571;28;20734;-67
2023/08/22 10:50:49;;;;;;;6.78;3.67;;;;;;;30.95;44.55;100846.28;5088756;28;20847;-66
2023/08/22 10:53:25;;;;;;;9.07;4.45;;;;;;;31.27;43.91;100848.75;5085023;28;20207;-68
2023/08/22 10:55:56;;;;;;;9.52;3.67;;;;;;;33.02;41.28;100836.41;5088650;28;20532;-66
2023/08/22 10:58:35;;;;;;;6.43;3.58;;;;;;;34.89;37.60;100827.75;5091363;28;20831;-66
2023/08/22 11:01:06;;;;;;;8.65;4.70;;;;;;;35.56;35.99;100825.44;5085979;28;20194;-65
2023/08/22 11:03:34;;;;;;;6.28;4.07;;;;;;;38.78;31.11;100823.91;5088714;28;20199;-71
2023/08/22 11:06:11;;;;;;;9.05;3.70;;;;;;;40.52;29.35;100817.19;5087113;28;20202;-66
2023/08/22 11:08:41;;;;;;;8.82;4.88;;;;;;;38.43;31.80;100814.78;5087384;28;20226;-62
2023/08/22 11:11:12;;;;;;;7.15;4.15;;;;;;;36.55;34.38;100822.75;5089968;28;20256;-66
2023/08/22 11:13:43;;;;;;;12.80;5.57;;;;;;;36.19;34.89;100825.53;5084028;28;20833;-66
2023/08/22 11:16:12;;;;;;;9.40;4.38;;;;;;;37.29;33.11;100825.84;5084617;28;20366;-65
2023/08/22 11:18:41;;;;;;;8.80;3.72;;;;;;;41.04;28.09;100813.91;5085246;28;20264;-65
2023/08/22 11:21:09;;;;;;;6.07;3.97;;;;;;;43.33;25.36;100810.97;5073619;28;20198;-69
2023/08/22 11:23:38;;;;;;;6.18;3.17;;;;;;;45.64;22.62;100799.75;5072161;28;20203;-67
2023/08/22 11:26:12;;;;;;;7.47;3.13;;;;;;;47.05;21.44;100790.69;5074858;28;20958;-66